Hoeydal — 3YPE — position and weather

sailwx.info

Track history (hours):
 
Tides and Currents Weather Stations Pressure Air Temp Water Temp Dewpoint Dewpoint Depression Visibility Wind Speed Wind Dir Waves Ship Positions

Hoeydal

Last reported at 2017-Dec-15 19:30 UTC. Time now 2017-Dec-15 19:46 UTC.
Position N 65°00' E 011°37'.

Length 70 m; draft 5 m.

Type: Cargo ship. MMSI: 257725000.

Date/timePositionNaut miles runAvg speedWind from/ knotsBaromVisibWave heightAir tempDewpointWater temp
2017-Dec-15 19:30N 65°00' E 011°37'611.7
2017-Dec-15 19:00N 65°05' E 011°46'612.2
2017-Dec-15 18:30N 65°10' E 011°51'612.0
2017-Dec-15 18:00N 65°16' E 011°57'612.0
2017-Dec-15 17:30N 65°21' E 012°03'510.8
2017-Dec-15 17:00N 65°26' E 011°56'611.8
2017-Dec-15 16:30N 65°31' E 012°01'611.9
2017-Dec-15 16:00N 65°36' E 012°11'611.8
2017-Dec-15 15:30N 65°41' E 012°15'612.3
2017-Dec-15 15:00N 65°47' E 012°20'612.3
2017-Dec-15 14:30N 65°53' E 012°22'611.9
2017-Dec-15 14:00N 65°59' E 012°28'612.3
2017-Dec-15 13:30N 66°03' E 012°38'612.6
2017-Dec-15 13:00N 66°08' E 012°48'612.2
2017-Dec-15 12:30N 66°14' E 012°54'611.5
2017-Dec-15 11:59N 66°20' E 012°57'510.7
2017-Dec-15 11:30N 66°23' E 013°06'3 6.3
2017-Dec-15 11:00N 66°26' E 013°08'0 0.0
2017-Dec-15 10:30N 66°26' E 013°08'1 1.5
2017-Dec-15 10:00N 66°27' E 013°06'611.0
2017-Dec-15 09:30N 66°31' E 012°57'510.6
2017-Dec-15 09:01N 66°36' E 012°51'0 0.4
2017-Dec-15 08:30N 66°35' E 012°51'0 0.7
2017-Dec-15 08:00N 66°35' E 012°52'510.7
2017-Dec-15 07:29N 66°41' E 012°52'611.5
2017-Dec-15 07:00N 66°43' E 013°05'612.7
2017-Dec-15 06:30N 66°44' E 013°21'510.8
2017-Dec-15 06:00N 66°43' E 013°34'0 0.6
2017-Dec-15 05:29N 66°43' E 013°33'4 9.2
2017-Dec-15 05:00N 66°44' E 013°22'1 1.7
2017-Dec-15 04:30N 66°44' E 013°20'0 0.0
2017-Dec-15 04:00N 66°44' E 013°20'6 4.1
2017-Dec-15 02:30N 66°49' E 013°28'7 4.7
2017-Dec-15 01:00N 66°56' E 013°29'611.2
2017-Dec-15 00:30N 67°00' E 013°39'6911.5
2017-Dec-14 18:30N 68°01' E 015°03'5 9.4
2017-Dec-14 18:00N 68°01' E 015°16'1 1.9
2017-Dec-14 17:30N 68°00' E 015°16'0 0.0
2017-Dec-14 17:00N 68°00' E 015°16'0 0.0
2017-Dec-14 16:30N 68°00' E 015°16'0 0.0
2017-Dec-14 16:00N 68°00' E 015°16'3 3.4
2017-Dec-14 15:00N 68°04' E 015°13'612.1
2017-Dec-14 14:30N 68°09' E 015°04'611.9
2017-Dec-14 14:00N 68°14' E 014°56'612.1
2017-Dec-14 13:30N 68°20' E 014°60'611.9
2017-Dec-14 13:00N 68°25' E 015°08'510.2
2017-Dec-14 12:30N 68°30' E 015°11'510.9
2017-Dec-14 12:00N 68°35' E 015°12'612.1
2017-Dec-14 11:30N 68°39' E 015°24'612.1
2017-Dec-14 11:00N 68°45' E 015°25'612.0
2017-Dec-14 10:30N 68°51' E 015°25'611.7
2017-Dec-14 10:00N 68°57' E 015°23'510.6
2017-Dec-14 09:30N 69°02' E 015°16'510.8
2017-Dec-14 09:00N 69°02' E 015°02'511.0
2017-Dec-14 08:30N 68°57' E 014°59'3 5.0
2017-Dec-14 08:00N 68°55' E 015°04'0 0.0
2017-Dec-14 07:30N 68°55' E 015°04'0 0.0
2017-Dec-14 06:59N 68°55' E 015°04'0 0.0
2017-Dec-14 06:30N 68°55' E 015°04'0 0.0
2017-Dec-14 06:00N 68°55' E 015°04'0 0.0
2017-Dec-14 05:30N 68°55' E 015°04'0 0.0
2017-Dec-14 05:00N 68°55' E 015°04'0 0.0
2017-Dec-14 04:30N 68°55' E 015°04'0 0.0
2017-Dec-14 04:00N 68°55' E 015°04'0 0.0
2017-Dec-14 03:30N 68°55' E 015°04'0 0.0
2017-Dec-14 03:00N 68°55' E 015°04'0 0.0
2017-Dec-14 02:30N 68°55' E 015°04'0 0.0
2017-Dec-14 02:00N 68°55' E 015°04'0 0.0
2017-Dec-14 01:29N 68°55' E 015°04'0 0.0
2017-Dec-14 01:00N 68°55' E 015°04'0 0.0
2017-Dec-14 00:30N 68°55' E 015°04'0 0.0
2017-Dec-14 00:00N 68°55' E 015°04'0 0.0
2017-Dec-13 23:30N 68°55' E 015°04'0 0.0
2017-Dec-13 23:00N 68°55' E 015°04'0 0.0
2017-Dec-13 22:30N 68°55' E 015°04'0 0.0
2017-Dec-13 22:00N 68°55' E 015°04'0 0.0
2017-Dec-13 21:30N 68°55' E 015°04'0 0.0
2017-Dec-13 21:00N 68°55' E 015°04'0 0.0
2017-Dec-13 20:30N 68°55' E 015°04'0 0.0
2017-Dec-13 20:00N 68°55' E 015°04'0 0.0
2017-Dec-13 19:29N 68°55' E 015°04'0 0.0
2017-Dec-13 19:00N 68°55' E 015°04'0 0.0
2017-Dec-13 18:30N 68°55' E 015°04'0 0.0
2017-Dec-13 18:00N 68°55' E 015°04'0 0.0
2017-Dec-13 17:30N 68°55' E 015°04'0 0.0
2017-Dec-13 17:00N 68°55' E 015°04'0 0.0
2017-Dec-13 16:30N 68°55' E 015°04'0 0.0
2017-Dec-13 16:00N 68°55' E 015°04'0 0.0
2017-Dec-13 15:30N 68°55' E 015°04'0 0.0
2017-Dec-13 14:59N 68°55' E 015°04'0 0.0
2017-Dec-13 14:30N 68°55' E 015°04'0 0.0
2017-Dec-13 13:59N 68°55' E 015°04'0 0.0
2017-Dec-13 13:29N 68°55' E 015°04'0 0.0
2017-Dec-13 13:00N 68°55' E 015°04'0 0.0
2017-Dec-13 12:30N 68°55' E 015°04'0 0.0
2017-Dec-13 12:00N 68°55' E 015°04'0 0.0
2017-Dec-13 11:30N 68°55' E 015°04'0 0.0
2017-Dec-13 11:00N 68°55' E 015°04'0 0.0
2017-Dec-13 10:30N 68°55' E 015°04'0 0.0
2017-Dec-13 10:00N 68°55' E 015°04'0 0.0
2017-Dec-13 09:30N 68°55' E 015°04'0 0.0
2017-Dec-13 09:00N 68°55' E 015°04'0 0.6
2017-Dec-13 08:30N 68°55' E 015°04'0 0.1
2017-Dec-13 08:00N 68°55' E 015°05'0 0.0
2017-Dec-13 07:30N 68°55' E 015°05'0 0.0
2017-Dec-13 07:00N 68°55' E 015°05'0 0.0
2017-Dec-13 06:30N 68°55' E 015°05'0 0.0
2017-Dec-13 06:00N 68°55' E 015°05'0 0.8
2017-Dec-13 05:30N 68°55' E 015°04'0 0.0
2017-Dec-13 05:00N 68°55' E 015°04'0 0.0
2017-Dec-13 04:30N 68°55' E 015°04'0 0.0
2017-Dec-13 04:00N 68°55' E 015°04'0 0.0
2017-Dec-13 03:30N 68°55' E 015°04'0 0.0
2017-Dec-13 03:00N 68°55' E 015°04'0 0.0
2017-Dec-13 02:30N 68°55' E 015°04'0 0.0
2017-Dec-13 02:00N 68°55' E 015°04'0 0.0
2017-Dec-13 01:30N 68°55' E 015°04'0 0.0
2017-Dec-13 01:00N 68°55' E 015°04'0 0.0
2017-Dec-13 00:30N 68°55' E 015°04'0 0.0
2017-Dec-13 00:00N 68°55' E 015°04'0 0.0
2017-Dec-12 23:30N 68°55' E 015°04'0 0.0
2017-Dec-12 23:00N 68°55' E 015°04'0 0.0
2017-Dec-12 22:30N 68°55' E 015°04'0 0.0
2017-Dec-12 22:00N 68°55' E 015°04'0 0.0
2017-Dec-12 21:30N 68°55' E 015°04'0 0.0
2017-Dec-12 21:00N 68°55' E 015°04'0 0.0
2017-Dec-12 20:30N 68°55' E 015°04'0 0.6
2017-Dec-12 20:00N 68°55' E 015°04'0 0.5
2017-Dec-12 19:30N 68°55' E 015°04'4 7.7
2017-Dec-12 19:00N 68°52' E 014°57'510.2
2017-Dec-12 18:30N 68°52' E 014°43'510.9
2017-Dec-12 18:00N 68°49' E 014°29'612.3
2017-Dec-12 17:30N 68°45' E 014°16'612.2
2017-Dec-12 17:00N 68°40' E 014°10'612.5
2017-Dec-12 16:30N 68°33' E 014°11'612.2
2017-Dec-12 16:00N 68°27' E 014°14'611.8
2017-Dec-12 15:30N 68°22' E 014°16'610.6
2017-Dec-12 14:59N 68°16' E 014°15'510.5
2017-Dec-12 14:30N 68°12' E 014°10'611.5
2017-Dec-12 14:00N 68°06' E 014°09'612.3
2017-Dec-12 13:30N 68°00' E 014°15'612.1
2017-Dec-12 13:00N 67°55' E 014°22'611.9
2017-Dec-12 12:30N 67°49' E 014°29'611.7
2017-Dec-12 12:00N 67°43' E 014°31'612.1
2017-Dec-12 11:30N 67°37' E 014°30'612.3
2017-Dec-12 11:00N 67°31' E 014°30'612.0
2017-Dec-12 10:30N 67°25' E 014°28'611.5
2017-Dec-12 10:00N 67°20' E 014°20'611.6
2017-Dec-12 09:31N 67°15' E 014°13'611.5
2017-Dec-12 09:00N 67°15' E 014°27'510.5
2017-Dec-12 08:30N 67°13' E 014°40'510.2
2017-Dec-12 08:00N 67°15' E 014°53'510.2
2017-Dec-12 07:30N 67°15' E 015°06'510.1
2017-Dec-12 07:00N 67°12' E 015°17'0 0.3
2017-Dec-12 06:30N 67°12' E 015°17'0 0.0
2017-Dec-12 06:00N 67°12' E 015°17'2 3.8
2017-Dec-12 05:30N 67°14' E 015°20'1 1.0
2017-Dec-12 05:00N 67°14' E 015°21'0 0.1
2017-Dec-12 04:30N 67°14' E 015°21'3 7.2
2017-Dec-12 04:00N 67°14' E 015°12'611.5
2017-Dec-12 03:30N 67°16' E 014°58'511.0
2017-Dec-12 03:00N 67°14' E 014°45'4 8.3
2017-Dec-12 02:30N 67°15' E 014°34'3 5.8
2017-Dec-12 02:00N 67°15' E 014°27'3 6.0
2017-Dec-12 01:30N 67°14' E 014°19'2 4.2
2017-Dec-12 01:00N 67°15' E 014°25'3 5.8
2017-Dec-12 00:30N 67°15' E 014°32'2 3.7
2017-Dec-12 00:00N 67°16' E 014°36'3 5.9
2017-Dec-11 23:30N 67°15' E 014°29'3 5.8
2017-Dec-11 23:00N 67°14' E 014°22'3 5.8
2017-Dec-11 22:30N 67°13' E 014°15'3 5.9
2017-Dec-11 22:00N 67°12' E 014°08'3 6.6
2017-Dec-11 21:30N 67°09' E 014°02'4 7.7
2017-Dec-11 21:00N 67°06' E 013°58'3 6.6
2017-Dec-11 20:30N 67°04' E 014°06'0 0.6
2017-Dec-11 19:59N 67°04' E 014°07'0 0.0
2017-Dec-11 19:30N 67°04' E 014°07'0 0.1
2017-Dec-11 19:00N 67°04' E 014°07'2 4.5
2017-Dec-11 18:30N 67°05' E 014°01'510.6
2017-Dec-11 18:00N 67°02' E 013°49'612.1
2017-Dec-11 17:30N 66°58' E 013°38'5 9.7
2017-Dec-11 17:00N 66°55' E 013°29'612.1
2017-Dec-11 16:30N 66°51' E 013°18'612.3
2017-Dec-11 16:00N 66°45' E 013°12'612.2
2017-Dec-11 15:30N 66°39' E 013°07'611.9
2017-Dec-11 15:00N 66°33' E 013°04'510.6
2017-Dec-11 14:30N 66°28' E 012°59'612.5
2017-Dec-11 14:00N 66°22' E 012°58'612.4
2017-Dec-11 13:29N 66°16' E 012°55'612.1
2017-Dec-11 13:00N 66°10' E 012°50'510.8
2017-Dec-11 12:30N 66°10' E 013°04'612.6
2017-Dec-11 12:00N 66°14' E 013°17'611.7
2017-Dec-11 11:30N 66°15' E 013°31'611.9
2017-Dec-11 11:00N 66°15' E 013°46'611.5
2017-Dec-11 10:30N 66°17' E 013°60'4 7.1
2017-Dec-11 10:00N 66°19' E 014°07'0 0.0
2017-Dec-11 09:29N 66°19' E 014°07'0 0.0
2017-Dec-11 09:00N 66°19' E 014°07'0 0.0
2017-Dec-11 08:30N 66°19' E 014°07'0 0.0
2017-Dec-11 08:00N 66°19' E 014°07'0 0.0
2017-Dec-11 07:30N 66°19' E 014°07'4 8.5
2017-Dec-11 07:00N 66°17' E 013°58'611.5
2017-Dec-11 06:29N 66°15' E 013°44'511.0
2017-Dec-11 06:00N 66°15' E 013°31'510.6
2017-Dec-11 05:30N 66°14' E 013°18'510.6
2017-Dec-11 05:00N 66°11' E 013°07'510.9
2017-Dec-11 04:29N 66°09' E 012°54'611.4
2017-Dec-11 04:00N 66°06' E 012°43'611.9
2017-Dec-11 03:30N 66°01' E 012°34'612.2
2017-Dec-11 02:59N 65°56' E 012°25'612.1
2017-Dec-11 02:30N 65°50' E 012°22'612.2
2017-Dec-11 02:00N 65°44' E 012°18'612.1
2017-Dec-11 01:29N 65°39' E 012°13'611.7
2017-Dec-11 00:59N 65°34' E 012°05'611.6
2017-Dec-11 00:30N 65°29' E 011°58'510.6
2017-Dec-10 23:59N 65°23' E 011°59'5 9.3
2017-Dec-10 23:30N 65°19' E 012°00'611.8
2017-Dec-10 23:00N 65°14' E 011°54'611.9
2017-Dec-10 22:30N 65°08' E 011°50'611.6
2017-Dec-10 22:00N 65°03' E 011°44'611.1
2017-Dec-10 21:30N 64°59' E 011°35'611.4
2017-Dec-10 21:00N 64°55' E 011°24'510.0
2017-Dec-10 20:31N 64°51' E 011°17'1 2.7
2017-Dec-10 20:00N 64°51' E 011°13'610.9
2017-Dec-10 19:30N 64°47' E 011°05'611.6
2017-Dec-10 19:00N 64°43' E 010°55'611.3
2017-Dec-10 18:30N 64°39' E 010°46'611.6
2017-Dec-10 17:59N 64°34' E 010°39'510.0
2017-Dec-10 17:30N 64°29' E 010°38'2 3.4
2017-Dec-10 17:00N 64°27' E 010°38'0 0.0
2017-Dec-10 16:29N 64°27' E 010°38'0 0.2
2017-Dec-10 16:00N 64°27' E 010°37'3 5.9
2017-Dec-10 15:30N 64°30' E 010°35'510.6
2017-Dec-10 15:00N 64°35' E 010°41'611.0
2017-Dec-10 14:29N 64°38' E 010°52'611.3
2017-Dec-10 14:00N 64°39' E 011°05'611.5
2017-Dec-10 13:30N 64°37' E 011°16'2 4.6
2017-Dec-10 13:00N 64°36' E 011°22'0 0.0
2017-Dec-10 12:30N 64°36' E 011°22'3 5.6
2017-Dec-10 12:00N 64°39' E 011°22'4 8.9
2017-Dec-10 11:30N 64°42' E 011°14'4 8.5
2017-Dec-10 11:00N 64°45' E 011°06'5 9.9
2017-Dec-10 10:30N 64°46' E 010°55'5 9.4
2017-Dec-10 10:00N 64°48' E 010°45'1 1.6
2017-Dec-10 09:30N 64°49' E 010°45'0 0.0
2017-Dec-10 09:00N 64°49' E 010°45'0 0.5
2017-Dec-10 08:30N 64°49' E 010°45'5 9.2
2017-Dec-10 08:00N 64°47' E 010°55'510.1
2017-Dec-10 07:30N 64°48' E 011°06'510.7
2017-Dec-10 07:00N 64°52' E 011°15'5 9.6
2017-Dec-10 06:30N 64°55' E 011°23'510.8
2017-Dec-10 06:00N 64°58' E 011°34'510.1
2017-Dec-10 05:30N 65°02' E 011°42'2 3.2
2017-Dec-10 05:00N 65°00' E 011°44'0 0.0
2017-Dec-10 04:30N 65°00' E 011°44'0 0.0
2017-Dec-10 04:00N 65°00' E 011°44'0 0.8
2017-Dec-10 03:30N 65°00' E 011°44'5 9.5
2017-Dec-10 03:00N 65°05' E 011°47'511.0
2017-Dec-10 02:30N 65°10' E 011°51'510.7
2017-Dec-10 02:00N 65°15' E 011°56'510.7
2017-Dec-10 01:30N 65°20' E 012°01'4 8.5
2017-Dec-10 01:00N 65°24' E 011°58'5 9.4
2017-Dec-10 00:30N 65°29' E 011°58'510.8
2017-Dec-10 00:00N 65°33' E 012°05'1 2.4
2017-Dec-09 23:30N 65°33' E 012°07'0 0.0
2017-Dec-09 23:00N 65°33' E 012°07'1 1.6
2017-Dec-09 22:30N 65°34' E 012°08'510.5
2017-Dec-09 22:00N 65°38' E 012°13'510.8
2017-Dec-09 21:30N 65°44' E 012°17'511.1
2017-Dec-09 21:00N 65°49' E 012°21'611.2
2017-Dec-09 20:30N 65°54' E 012°22'510.9
2017-Dec-09 20:00N 65°59' E 012°29'511.0
2017-Dec-09 19:30N 66°03' E 012°37'610.8
2017-Dec-09 19:00N 66°07' E 012°46'611.0
2017-Dec-09 18:30N 66°12' E 012°52'511.0
2017-Dec-09 18:00N 66°18' E 012°56'510.4
2017-Dec-09 17:30N 66°22' E 013°01'5 9.6
2017-Dec-09 17:00N 66°26' E 013°08'0 0.3
2017-Dec-09 16:30N 66°26' E 013°08'0 0.0
2017-Dec-09 16:00N 66°26' E 013°08'0 0.5
2017-Dec-09 15:30N 66°26' E 013°08'4 7.7
2017-Dec-09 15:00N 66°29' E 013°01'611.5
2017-Dec-09 14:30N 66°34' E 012°54'2 3.9
2017-Dec-09 14:00N 66°35' E 012°51'0 0.0
2017-Dec-09 13:30N 66°35' E 012°51'0 0.0
2017-Dec-09 13:00N 66°35' E 012°51'3 5.5
2017-Dec-09 12:30N 66°38' E 012°52'510.4
2017-Dec-09 12:00N 66°42' E 012°59'612.5
2017-Dec-09 11:30N 66°44' E 013°14'612.4
2017-Dec-09 11:00N 66°44' E 013°30'2 3.3
2017-Dec-09 10:30N 66°43' E 013°34'0 0.0
2017-Dec-09 10:00N 66°43' E 013°34'1 2.9
2017-Dec-09 09:30N 66°44' E 013°31'4 8.4
2017-Dec-09 09:00N 66°44' E 013°20'0 0.2
2017-Dec-09 08:30N 66°44' E 013°20'0 0.0
2017-Dec-09 08:00N 66°44' E 013°20'3 5.9
2017-Dec-09 07:30N 66°45' E 013°13'611.7
2017-Dec-09 07:00N 66°48' E 013°25'2 3.2
2017-Dec-09 06:30N 66°49' E 013°28'1 1.3
2017-Dec-09 06:00N 66°49' E 013°30'4 7.6
2017-Dec-09 05:30N 66°52' E 013°36'0 0.0
2017-Dec-09 05:00N 66°52' E 013°36'1 2.1
2017-Dec-09 04:30N 66°52' E 013°34'611.6
2017-Dec-09 04:00N 66°57' E 013°29'611.5
2017-Dec-09 03:30N 67°00' E 013°41'612.2
2017-Dec-09 03:00N 67°04' E 013°54'611.5
2017-Dec-09 02:30N 67°09' E 014°02'611.7
2017-Dec-09 02:00N 67°14' E 014°09'612.2
2017-Dec-09 01:30N 67°19' E 014°17'5 9.2
2017-Dec-09 01:00N 67°23' E 014°23'0 0.0
2017-Dec-09 00:30N 67°23' E 014°23'0 0.0
2017-Dec-09 00:00N 67°23' E 014°23'1 1.1
2017-Dec-08 23:30N 67°23' E 014°21'2 4.4
2017-Dec-08 23:00N 67°24' E 014°26'612.1
2017-Dec-08 22:30N 67°27' E 014°40'1 2.5
2017-Dec-08 22:00N 67°26' E 014°43'0 0.0
2017-Dec-08 21:30N 67°26' E 014°43'0 0.0
2017-Dec-08 21:00N 67°26' E 014°43'2 4.6
2017-Dec-08 20:30N 67°27' E 014°38'510.8
2017-Dec-08 20:00N 67°32' E 014°30'611.4
2017-Dec-08 19:30N 67°38' E 014°30'611.5
2017-Dec-08 19:00N 67°43' E 014°31'611.1
2017-Dec-08 18:30N 67°49' E 014°34'612.0
2017-Dec-08 18:00N 67°53' E 014°44'611.6
2017-Dec-08 17:30N 67°58' E 014°52'612.6
2017-Dec-08 17:00N 68°02' E 015°06'4 8.7
2017-Dec-08 16:30N 68°01' E 015°17'1 1.1
2017-Dec-08 16:00N 68°00' E 015°16'0 0.0
2017-Dec-08 15:30N 68°00' E 015°16'0 0.0
2017-Dec-08 14:59N 68°00' E 015°16'0 0.0
2017-Dec-08 14:30N 68°00' E 015°16'0 0.8
2017-Dec-08 14:00N 68°00' E 015°16'5 9.3
2017-Dec-08 13:30N 68°04' E 015°12'610.9
2017-Dec-08 13:00N 68°09' E 015°03'510.0
2017-Dec-08 12:30N 68°13' E 014°56'611.2
2017-Dec-08 12:00N 68°19' E 014°58'611.6
2017-Dec-08 11:30N 68°24' E 015°06'611.3
2017-Dec-08 11:00N 68°29' E 015°13'5 9.7
2017-Dec-08 10:30N 68°33' E 015°09'611.5
2017-Dec-08 10:00N 68°37' E 015°20'611.2
2017-Dec-08 09:30N 68°43' E 015°26'611.3
2017-Dec-08 09:00N 68°48' E 015°26'510.7
2017-Dec-08 08:30N 68°54' E 015°24'510.9
2017-Dec-08 08:00N 68°59' E 015°23'5 9.3
2017-Dec-08 07:30N 69°02' E 015°14'5 9.4
2017-Dec-08 07:00N 69°02' E 015°01'611.0
2017-Dec-08 06:30N 68°56' E 014°59'2 4.1
2017-Dec-08 06:00N 68°55' E 015°04'0 0.0
2017-Dec-08 05:30N 68°55' E 015°04'0 0.0
2017-Dec-08 05:00N 68°55' E 015°04'0 0.0
2017-Dec-08 04:30N 68°55' E 015°04'0 0.0
2017-Dec-08 03:59N 68°55' E 015°04'0 0.0
2017-Dec-08 03:30N 68°55' E 015°04'0 0.0
2017-Dec-08 03:00N 68°55' E 015°04'0 0.0
2017-Dec-08 02:30N 68°55' E 015°04'0 0.0
2017-Dec-08 02:00N 68°55' E 015°04'0 0.0
2017-Dec-08 01:30N 68°55' E 015°04'0 0.0
2017-Dec-08 01:00N 68°55' E 015°04'0 0.0
2017-Dec-08 00:30N 68°55' E 015°04'0 0.0
2017-Dec-07 23:58N 68°55' E 015°04'0 0.0
2017-Dec-07 23:30N 68°55' E 015°04'0 0.0
2017-Dec-07 23:00N 68°55' E 015°04'0 0.0
2017-Dec-07 22:30N 68°55' E 015°04'0 0.0
2017-Dec-07 22:00N 68°55' E 015°04'0 0.0
2017-Dec-07 21:30N 68°55' E 015°04'0 0.0
2017-Dec-07 21:00N 68°55' E 015°04'0 0.0
2017-Dec-07 20:30N 68°55' E 015°04'0 0.0
2017-Dec-07 20:00N 68°55' E 015°04'0 0.0
2017-Dec-07 19:30N 68°55' E 015°04'0 0.0
2017-Dec-07 19:00N 68°55' E 015°04'0 0.0
2017-Dec-07 18:30N 68°55' E 015°04'0 0.0
2017-Dec-07 18:00N 68°55' E 015°04'0 0.0
2017-Dec-07 17:30N 68°55' E 015°04'0 0.0
2017-Dec-07 17:00N 68°55' E 015°04'0 0.0
2017-Dec-07 16:30N 68°55' E 015°04'0 0.0
2017-Dec-07 16:00N 68°55' E 015°04'0 0.0
2017-Dec-07 15:30N 68°55' E 015°04'0 0.0
2017-Dec-07 15:00N 68°55' E 015°04'0 0.0
2017-Dec-07 14:30N 68°55' E 015°04'0 0.0
2017-Dec-07 14:00N 68°55' E 015°04'0 0.0
2017-Dec-07 13:30N 68°55' E 015°04'0 0.0
2017-Dec-07 13:00N 68°55' E 015°04'0 0.0
2017-Dec-07 12:30N 68°55' E 015°04'0 0.0
2017-Dec-07 11:59N 68°55' E 015°04'0 0.0
2017-Dec-07 11:29N 68°55' E 015°04'0 0.0
2017-Dec-07 11:00N 68°55' E 015°04'0 0.0
2017-Dec-07 10:30N 68°55' E 015°04'0 0.0
2017-Dec-07 10:00N 68°55' E 015°04'0 0.0
2017-Dec-07 09:30N 68°55' E 015°04'0 0.0
2017-Dec-07 09:00N 68°55' E 015°04'0 0.0
2017-Dec-07 08:30N 68°55' E 015°04'0 0.0
2017-Dec-07 08:00N 68°55' E 015°04'0 0.0
2017-Dec-07 07:30N 68°55' E 015°04'0 0.0
2017-Dec-07 07:00N 68°55' E 015°04'0 0.0
2017-Dec-07 06:30N 68°55' E 015°04'0 0.0
2017-Dec-07 05:59N 68°55' E 015°04'0 0.0
2017-Dec-07 05:30N 68°55' E 015°04'0 0.0
2017-Dec-07 05:00N 68°55' E 015°04'0 0.0
2017-Dec-07 04:30N 68°55' E 015°04'0 0.0
2017-Dec-07 04:00N 68°55' E 015°04'0 0.0
2017-Dec-07 03:29N 68°55' E 015°04'0 0.0
2017-Dec-07 03:00N 68°55' E 015°04'0 0.0
2017-Dec-07 02:30N 68°55' E 015°04'0 0.0
2017-Dec-07 02:00N 68°55' E 015°04'0 0.0
2017-Dec-07 01:30N 68°55' E 015°04'0 0.0
2017-Dec-07 01:00N 68°55' E 015°04'0 0.0
2017-Dec-07 00:30N 68°55' E 015°04'0 0.0
2017-Dec-06 23:59N 68°55' E 015°04'0 0.0
2017-Dec-06 23:30N 68°55' E 015°04'0 0.0
2017-Dec-06 23:00N 68°55' E 015°04'0 0.0
2017-Dec-06 22:30N 68°55' E 015°04'0 0.0
2017-Dec-06 22:00N 68°55' E 015°04'0 0.0
2017-Dec-06 21:30N 68°55' E 015°04'0 0.2
2017-Dec-06 21:00N 68°55' E 015°04'  
Track history (hours):
 
Tides and Currents Weather Stations Pressure Air Temp Water Temp Dewpoint Dewpoint Depression Visibility Wind Speed Wind Dir Waves Ship Positions

Hoeydal

Last reported at 2017-Dec-15 19:30 UTC. Time now 2017-Dec-15 19:46 UTC.
Position N 65°00' E 011°37'.

Length 70 m; draft 5 m.

Type: Cargo ship. MMSI: 257725000.

Date/timePositionNaut miles runAvg speedWind from/ knotsBaromVisibWave heightAir tempDewpointWater temp
2017-Dec-15 19:30N 65°00' E 011°37'611.7
2017-Dec-15 19:00N 65°05' E 011°46'612.2
2017-Dec-15 18:30N 65°10' E 011°51'612.0
2017-Dec-15 18:00N 65°16' E 011°57'612.0
2017-Dec-15 17:30N 65°21' E 012°03'510.8
2017-Dec-15 17:00N 65°26' E 011°56'611.8
2017-Dec-15 16:30N 65°31' E 012°01'611.9
2017-Dec-15 16:00N 65°36' E 012°11'611.8
2017-Dec-15 15:30N 65°41' E 012°15'612.3
2017-Dec-15 15:00N 65°47' E 012°20'612.3
2017-Dec-15 14:30N 65°53' E 012°22'611.9
2017-Dec-15 14:00N 65°59' E 012°28'612.3
2017-Dec-15 13:30N 66°03' E 012°38'612.6
2017-Dec-15 13:00N 66°08' E 012°48'612.2
2017-Dec-15 12:30N 66°14' E 012°54'611.5
2017-Dec-15 11:59N 66°20' E 012°57'510.7
2017-Dec-15 11:30N 66°23' E 013°06'3 6.3
2017-Dec-15 11:00N 66°26' E 013°08'0 0.0
2017-Dec-15 10:30N 66°26' E 013°08'1 1.5
2017-Dec-15 10:00N 66°27' E 013°06'611.0
2017-Dec-15 09:30N 66°31' E 012°57'510.6
2017-Dec-15 09:01N 66°36' E 012°51'0 0.4
2017-Dec-15 08:30N 66°35' E 012°51'0 0.7
2017-Dec-15 08:00N 66°35' E 012°52'510.7
2017-Dec-15 07:29N 66°41' E 012°52'611.5
2017-Dec-15 07:00N 66°43' E 013°05'612.7
2017-Dec-15 06:30N 66°44' E 013°21'510.8
2017-Dec-15 06:00N 66°43' E 013°34'0 0.6
2017-Dec-15 05:29N 66°43' E 013°33'4 9.2
2017-Dec-15 05:00N 66°44' E 013°22'1 1.7
2017-Dec-15 04:30N 66°44' E 013°20'0 0.0
2017-Dec-15 04:00N 66°44' E 013°20'6 4.1
2017-Dec-15 02:30N 66°49' E 013°28'7 4.7
2017-Dec-15 01:00N 66°56' E 013°29'611.2
2017-Dec-15 00:30N 67°00' E 013°39'6911.5
2017-Dec-14 18:30N 68°01' E 015°03'5 9.4
2017-Dec-14 18:00N 68°01' E 015°16'1 1.9
2017-Dec-14 17:30N 68°00' E 015°16'0 0.0
2017-Dec-14 17:00N 68°00' E 015°16'0 0.0
2017-Dec-14 16:30N 68°00' E 015°16'0 0.0
2017-Dec-14 16:00N 68°00' E 015°16'3 3.4
2017-Dec-14 15:00N 68°04' E 015°13'612.1
2017-Dec-14 14:30N 68°09' E 015°04'611.9
2017-Dec-14 14:00N 68°14' E 014°56'612.1
2017-Dec-14 13:30N 68°20' E 014°60'611.9
2017-Dec-14 13:00N 68°25' E 015°08'510.2
2017-Dec-14 12:30N 68°30' E 015°11'510.9
2017-Dec-14 12:00N 68°35' E 015°12'612.1
2017-Dec-14 11:30N 68°39' E 015°24'612.1
2017-Dec-14 11:00N 68°45' E 015°25'612.0
2017-Dec-14 10:30N 68°51' E 015°25'611.7
2017-Dec-14 10:00N 68°57' E 015°23'510.6
2017-Dec-14 09:30N 69°02' E 015°16'510.8
2017-Dec-14 09:00N 69°02' E 015°02'511.0
2017-Dec-14 08:30N 68°57' E 014°59'3 5.0
2017-Dec-14 08:00N 68°55' E 015°04'0 0.0
2017-Dec-14 07:30N 68°55' E 015°04'0 0.0
2017-Dec-14 06:59N 68°55' E 015°04'0 0.0
2017-Dec-14 06:30N 68°55' E 015°04'0 0.0
2017-Dec-14 06:00N 68°55' E 015°04'0 0.0
2017-Dec-14 05:30N 68°55' E 015°04'0 0.0
2017-Dec-14 05:00N 68°55' E 015°04'0 0.0
2017-Dec-14 04:30N 68°55' E 015°04'0 0.0
2017-Dec-14 04:00N 68°55' E 015°04'0 0.0
2017-Dec-14 03:30N 68°55' E 015°04'0 0.0
2017-Dec-14 03:00N 68°55' E 015°04'0 0.0
2017-Dec-14 02:30N 68°55' E 015°04'0 0.0
2017-Dec-14 02:00N 68°55' E 015°04'0 0.0
2017-Dec-14 01:29N 68°55' E 015°04'0 0.0
2017-Dec-14 01:00N 68°55' E 015°04'0 0.0
2017-Dec-14 00:30N 68°55' E 015°04'0 0.0
2017-Dec-14 00:00N 68°55' E 015°04'0 0.0
2017-Dec-13 23:30N 68°55' E 015°04'0 0.0
2017-Dec-13 23:00N 68°55' E 015°04'0 0.0
2017-Dec-13 22:30N 68°55' E 015°04'0 0.0
2017-Dec-13 22:00N 68°55' E 015°04'0 0.0
2017-Dec-13 21:30N 68°55' E 015°04'0 0.0
2017-Dec-13 21:00N 68°55' E 015°04'0 0.0
2017-Dec-13 20:30N 68°55' E 015°04'0 0.0
2017-Dec-13 20:00N 68°55' E 015°04'0 0.0
2017-Dec-13 19:29N 68°55' E 015°04'0 0.0
2017-Dec-13 19:00N 68°55' E 015°04'0 0.0
2017-Dec-13 18:30N 68°55' E 015°04'0 0.0
2017-Dec-13 18:00N 68°55' E 015°04'0 0.0
2017-Dec-13 17:30N 68°55' E 015°04'0 0.0
2017-Dec-13 17:00N 68°55' E 015°04'0 0.0
2017-Dec-13 16:30N 68°55' E 015°04'0 0.0
2017-Dec-13 16:00N 68°55' E 015°04'0 0.0
2017-Dec-13 15:30N 68°55' E 015°04'0 0.0
2017-Dec-13 14:59N 68°55' E 015°04'0 0.0
2017-Dec-13 14:30N 68°55' E 015°04'0 0.0
2017-Dec-13 13:59N 68°55' E 015°04'0 0.0
2017-Dec-13 13:29N 68°55' E 015°04'0 0.0
2017-Dec-13 13:00N 68°55' E 015°04'0 0.0
2017-Dec-13 12:30N 68°55' E 015°04'0 0.0
2017-Dec-13 12:00N 68°55' E 015°04'0 0.0
2017-Dec-13 11:30N 68°55' E 015°04'0 0.0
2017-Dec-13 11:00N 68°55' E 015°04'0 0.0
2017-Dec-13 10:30N 68°55' E 015°04'0 0.0
2017-Dec-13 10:00N 68°55' E 015°04'0 0.0
2017-Dec-13 09:30N 68°55' E 015°04'0 0.0
2017-Dec-13 09:00N 68°55' E 015°04'0 0.6
2017-Dec-13 08:30N 68°55' E 015°04'0 0.1
2017-Dec-13 08:00N 68°55' E 015°05'0 0.0
2017-Dec-13 07:30N 68°55' E 015°05'0 0.0
2017-Dec-13 07:00N 68°55' E 015°05'0 0.0
2017-Dec-13 06:30N 68°55' E 015°05'0 0.0
2017-Dec-13 06:00N 68°55' E 015°05'0 0.8
2017-Dec-13 05:30N 68°55' E 015°04'0 0.0
2017-Dec-13 05:00N 68°55' E 015°04'0 0.0
2017-Dec-13 04:30N 68°55' E 015°04'0 0.0
2017-Dec-13 04:00N 68°55' E 015°04'0 0.0
2017-Dec-13 03:30N 68°55' E 015°04'0 0.0
2017-Dec-13 03:00N 68°55' E 015°04'0 0.0
2017-Dec-13 02:30N 68°55' E 015°04'0 0.0
2017-Dec-13 02:00N 68°55' E 015°04'0 0.0
2017-Dec-13 01:30N 68°55' E 015°04'0 0.0
2017-Dec-13 01:00N 68°55' E 015°04'0 0.0
2017-Dec-13 00:30N 68°55' E 015°04'0 0.0
2017-Dec-13 00:00N 68°55' E 015°04'0 0.0
2017-Dec-12 23:30N 68°55' E 015°04'0 0.0
2017-Dec-12 23:00N 68°55' E 015°04'0 0.0
2017-Dec-12 22:30N 68°55' E 015°04'0 0.0
2017-Dec-12 22:00N 68°55' E 015°04'0 0.0
2017-Dec-12 21:30N 68°55' E 015°04'0 0.0
2017-Dec-12 21:00N 68°55' E 015°04'0 0.0
2017-Dec-12 20:30N 68°55' E 015°04'0 0.6
2017-Dec-12 20:00N 68°55' E 015°04'0 0.5
2017-Dec-12 19:30N 68°55' E 015°04'4 7.7
2017-Dec-12 19:00N 68°52' E 014°57'510.2
2017-Dec-12 18:30N 68°52' E 014°43'510.9
2017-Dec-12 18:00N 68°49' E 014°29'612.3
2017-Dec-12 17:30N 68°45' E 014°16'612.2
2017-Dec-12 17:00N 68°40' E 014°10'612.5
2017-Dec-12 16:30N 68°33' E 014°11'612.2
2017-Dec-12 16:00N 68°27' E 014°14'611.8
2017-Dec-12 15:30N 68°22' E 014°16'610.6
2017-Dec-12 14:59N 68°16' E 014°15'510.5
2017-Dec-12 14:30N 68°12' E 014°10'611.5
2017-Dec-12 14:00N 68°06' E 014°09'612.3
2017-Dec-12 13:30N 68°00' E 014°15'612.1
2017-Dec-12 13:00N 67°55' E 014°22'611.9
2017-Dec-12 12:30N 67°49' E 014°29'611.7
2017-Dec-12 12:00N 67°43' E 014°31'612.1
2017-Dec-12 11:30N 67°37' E 014°30'612.3
2017-Dec-12 11:00N 67°31' E 014°30'612.0
2017-Dec-12 10:30N 67°25' E 014°28'611.5
2017-Dec-12 10:00N 67°20' E 014°20'611.6
2017-Dec-12 09:31N 67°15' E 014°13'611.5
2017-Dec-12 09:00N 67°15' E 014°27'510.5
2017-Dec-12 08:30N 67°13' E 014°40'510.2
2017-Dec-12 08:00N 67°15' E 014°53'510.2
2017-Dec-12 07:30N 67°15' E 015°06'510.1
2017-Dec-12 07:00N 67°12' E 015°17'0 0.3
2017-Dec-12 06:30N 67°12' E 015°17'0 0.0
2017-Dec-12 06:00N 67°12' E 015°17'2 3.8
2017-Dec-12 05:30N 67°14' E 015°20'1 1.0
2017-Dec-12 05:00N 67°14' E 015°21'0 0.1
2017-Dec-12 04:30N 67°14' E 015°21'3 7.2
2017-Dec-12 04:00N 67°14' E 015°12'611.5
2017-Dec-12 03:30N 67°16' E 014°58'511.0
2017-Dec-12 03:00N 67°14' E 014°45'4 8.3
2017-Dec-12 02:30N 67°15' E 014°34'3 5.8
2017-Dec-12 02:00N 67°15' E 014°27'3 6.0
2017-Dec-12 01:30N 67°14' E 014°19'2 4.2
2017-Dec-12 01:00N 67°15' E 014°25'3 5.8
2017-Dec-12 00:30N 67°15' E 014°32'2 3.7
2017-Dec-12 00:00N 67°16' E 014°36'3 5.9
2017-Dec-11 23:30N 67°15' E 014°29'3 5.8
2017-Dec-11 23:00N 67°14' E 014°22'3 5.8
2017-Dec-11 22:30N 67°13' E 014°15'3 5.9
2017-Dec-11 22:00N 67°12' E 014°08'3 6.6
2017-Dec-11 21:30N 67°09' E 014°02'4 7.7
2017-Dec-11 21:00N 67°06' E 013°58'3 6.6
2017-Dec-11 20:30N 67°04' E 014°06'0 0.6
2017-Dec-11 19:59N 67°04' E 014°07'0 0.0
2017-Dec-11 19:30N 67°04' E 014°07'0 0.1
2017-Dec-11 19:00N 67°04' E 014°07'2 4.5
2017-Dec-11 18:30N 67°05' E 014°01'510.6
2017-Dec-11 18:00N 67°02' E 013°49'612.1
2017-Dec-11 17:30N 66°58' E 013°38'5 9.7
2017-Dec-11 17:00N 66°55' E 013°29'612.1
2017-Dec-11 16:30N 66°51' E 013°18'612.3
2017-Dec-11 16:00N 66°45' E 013°12'612.2
2017-Dec-11 15:30N 66°39' E 013°07'611.9
2017-Dec-11 15:00N 66°33' E 013°04'510.6
2017-Dec-11 14:30N 66°28' E 012°59'612.5
2017-Dec-11 14:00N 66°22' E 012°58'612.4
2017-Dec-11 13:29N 66°16' E 012°55'612.1
2017-Dec-11 13:00N 66°10' E 012°50'510.8
2017-Dec-11 12:30N 66°10' E 013°04'612.6
2017-Dec-11 12:00N 66°14' E 013°17'611.7
2017-Dec-11 11:30N 66°15' E 013°31'611.9
2017-Dec-11 11:00N 66°15' E 013°46'611.5
2017-Dec-11 10:30N 66°17' E 013°60'4 7.1
2017-Dec-11 10:00N 66°19' E 014°07'0 0.0
2017-Dec-11 09:29N 66°19' E 014°07'0 0.0
2017-Dec-11 09:00N 66°19' E 014°07'0 0.0
2017-Dec-11 08:30N 66°19' E 014°07'0 0.0
2017-Dec-11 08:00N 66°19' E 014°07'0 0.0
2017-Dec-11 07:30N 66°19' E 014°07'4 8.5
2017-Dec-11 07:00N 66°17' E 013°58'611.5
2017-Dec-11 06:29N 66°15' E 013°44'511.0
2017-Dec-11 06:00N 66°15' E 013°31'510.6
2017-Dec-11 05:30N 66°14' E 013°18'510.6
2017-Dec-11 05:00N 66°11' E 013°07'510.9
2017-Dec-11 04:29N 66°09' E 012°54'611.4
2017-Dec-11 04:00N 66°06' E 012°43'611.9
2017-Dec-11 03:30N 66°01' E 012°34'612.2
2017-Dec-11 02:59N 65°56' E 012°25'612.1
2017-Dec-11 02:30N 65°50' E 012°22'612.2
2017-Dec-11 02:00N 65°44' E 012°18'612.1
2017-Dec-11 01:29N 65°39' E 012°13'611.7
2017-Dec-11 00:59N 65°34' E 012°05'611.6
2017-Dec-11 00:30N 65°29' E 011°58'510.6
2017-Dec-10 23:59N 65°23' E 011°59'5 9.3
2017-Dec-10 23:30N 65°19' E 012°00'611.8
2017-Dec-10 23:00N 65°14' E 011°54'611.9
2017-Dec-10 22:30N 65°08' E 011°50'611.6
2017-Dec-10 22:00N 65°03' E 011°44'611.1
2017-Dec-10 21:30N 64°59' E 011°35'611.4
2017-Dec-10 21:00N 64°55' E 011°24'510.0
2017-Dec-10 20:31N 64°51' E 011°17'1 2.7
2017-Dec-10 20:00N 64°51' E 011°13'610.9
2017-Dec-10 19:30N 64°47' E 011°05'611.6
2017-Dec-10 19:00N 64°43' E 010°55'611.3
2017-Dec-10 18:30N 64°39' E 010°46'611.6
2017-Dec-10 17:59N 64°34' E 010°39'510.0
2017-Dec-10 17:30N 64°29' E 010°38'2 3.4
2017-Dec-10 17:00N 64°27' E 010°38'0 0.0
2017-Dec-10 16:29N 64°27' E 010°38'0 0.2
2017-Dec-10 16:00N 64°27' E 010°37'3 5.9
2017-Dec-10 15:30N 64°30' E 010°35'510.6
2017-Dec-10 15:00N 64°35' E 010°41'611.0
2017-Dec-10 14:29N 64°38' E 010°52'611.3
2017-Dec-10 14:00N 64°39' E 011°05'611.5
2017-Dec-10 13:30N 64°37' E 011°16'2 4.6
2017-Dec-10 13:00N 64°36' E 011°22'0 0.0
2017-Dec-10 12:30N 64°36' E 011°22'3 5.6
2017-Dec-10 12:00N 64°39' E 011°22'4 8.9
2017-Dec-10 11:30N 64°42' E 011°14'4 8.5
2017-Dec-10 11:00N 64°45' E 011°06'5 9.9
2017-Dec-10 10:30N 64°46' E 010°55'5 9.4
2017-Dec-10 10:00N 64°48' E 010°45'1 1.6
2017-Dec-10 09:30N 64°49' E 010°45'0 0.0
2017-Dec-10 09:00N 64°49' E 010°45'0 0.5
2017-Dec-10 08:30N 64°49' E 010°45'5 9.2
2017-Dec-10 08:00N 64°47' E 010°55'510.1
2017-Dec-10 07:30N 64°48' E 011°06'510.7
2017-Dec-10 07:00N 64°52' E 011°15'5 9.6
2017-Dec-10 06:30N 64°55' E 011°23'510.8
2017-Dec-10 06:00N 64°58' E 011°34'510.1
2017-Dec-10 05:30N 65°02' E 011°42'2 3.2
2017-Dec-10 05:00N 65°00' E 011°44'0 0.0
2017-Dec-10 04:30N 65°00' E 011°44'0 0.0
2017-Dec-10 04:00N 65°00' E 011°44'0 0.8
2017-Dec-10 03:30N 65°00' E 011°44'5 9.5
2017-Dec-10 03:00N 65°05' E 011°47'511.0
2017-Dec-10 02:30N 65°10' E 011°51'510.7
2017-Dec-10 02:00N 65°15' E 011°56'510.7
2017-Dec-10 01:30N 65°20' E 012°01'4 8.5
2017-Dec-10 01:00N 65°24' E 011°58'5 9.4
2017-Dec-10 00:30N 65°29' E 011°58'510.8
2017-Dec-10 00:00N 65°33' E 012°05'1 2.4
2017-Dec-09 23:30N 65°33' E 012°07'0 0.0
2017-Dec-09 23:00N 65°33' E 012°07'1 1.6
2017-Dec-09 22:30N 65°34' E 012°08'510.5
2017-Dec-09 22:00N 65°38' E 012°13'510.8
2017-Dec-09 21:30N 65°44' E 012°17'511.1
2017-Dec-09 21:00N 65°49' E 012°21'611.2
2017-Dec-09 20:30N 65°54' E 012°22'510.9
2017-Dec-09 20:00N 65°59' E 012°29'511.0
2017-Dec-09 19:30N 66°03' E 012°37'610.8
2017-Dec-09 19:00N 66°07' E 012°46'611.0
2017-Dec-09 18:30N 66°12' E 012°52'511.0
2017-Dec-09 18:00N 66°18' E 012°56'510.4
2017-Dec-09 17:30N 66°22' E 013°01'5 9.6
2017-Dec-09 17:00N 66°26' E 013°08'0 0.3
2017-Dec-09 16:30N 66°26' E 013°08'0 0.0
2017-Dec-09 16:00N 66°26' E 013°08'0 0.5
2017-Dec-09 15:30N 66°26' E 013°08'4 7.7
2017-Dec-09 15:00N 66°29' E 013°01'611.5
2017-Dec-09 14:30N 66°34' E 012°54'2 3.9
2017-Dec-09 14:00N 66°35' E 012°51'0 0.0
2017-Dec-09 13:30N 66°35' E 012°51'0 0.0
2017-Dec-09 13:00N 66°35' E 012°51'3 5.5
2017-Dec-09 12:30N 66°38' E 012°52'510.4
2017-Dec-09 12:00N 66°42' E 012°59'612.5
2017-Dec-09 11:30N 66°44' E 013°14'612.4
2017-Dec-09 11:00N 66°44' E 013°30'2 3.3
2017-Dec-09 10:30N 66°43' E 013°34'0 0.0
2017-Dec-09 10:00N 66°43' E 013°34'1 2.9
2017-Dec-09 09:30N 66°44' E 013°31'4 8.4
2017-Dec-09 09:00N 66°44' E 013°20'0 0.2
2017-Dec-09 08:30N 66°44' E 013°20'0 0.0
2017-Dec-09 08:00N 66°44' E 013°20'3 5.9
2017-Dec-09 07:30N 66°45' E 013°13'611.7
2017-Dec-09 07:00N 66°48' E 013°25'2 3.2
2017-Dec-09 06:30N 66°49' E 013°28'1 1.3
2017-Dec-09 06:00N 66°49' E 013°30'4 7.6
2017-Dec-09 05:30N 66°52' E 013°36'0 0.0
2017-Dec-09 05:00N 66°52' E 013°36'1 2.1
2017-Dec-09 04:30N 66°52' E 013°34'611.6
2017-Dec-09 04:00N 66°57' E 013°29'611.5
2017-Dec-09 03:30N 67°00' E 013°41'612.2
2017-Dec-09 03:00N 67°04' E 013°54'611.5
2017-Dec-09 02:30N 67°09' E 014°02'611.7
2017-Dec-09 02:00N 67°14' E 014°09'612.2
2017-Dec-09 01:30N 67°19' E 014°17'5 9.2
2017-Dec-09 01:00N 67°23' E 014°23'0 0.0
2017-Dec-09 00:30N 67°23' E 014°23'0 0.0
2017-Dec-09 00:00N 67°23' E 014°23'1 1.1
2017-Dec-08 23:30N 67°23' E 014°21'2 4.4
2017-Dec-08 23:00N 67°24' E 014°26'612.1
2017-Dec-08 22:30N 67°27' E 014°40'1 2.5
2017-Dec-08 22:00N 67°26' E 014°43'0 0.0
2017-Dec-08 21:30N 67°26' E 014°43'0 0.0
2017-Dec-08 21:00N 67°26' E 014°43'2 4.6
2017-Dec-08 20:30N 67°27' E 014°38'510.8
2017-Dec-08 20:00N 67°32' E 014°30'611.4
2017-Dec-08 19:30N 67°38' E 014°30'611.5
2017-Dec-08 19:00N 67°43' E 014°31'611.1
2017-Dec-08 18:30N 67°49' E 014°34'612.0
2017-Dec-08 18:00N 67°53' E 014°44'611.6
2017-Dec-08 17:30N 67°58' E 014°52'612.6
2017-Dec-08 17:00N 68°02' E 015°06'4 8.7
2017-Dec-08 16:30N 68°01' E 015°17'1 1.1
2017-Dec-08 16:00N 68°00' E 015°16'0 0.0
2017-Dec-08 15:30N 68°00' E 015°16'0 0.0
2017-Dec-08 14:59N 68°00' E 015°16'0 0.0
2017-Dec-08 14:30N 68°00' E 015°16'0 0.8
2017-Dec-08 14:00N 68°00' E 015°16'5 9.3
2017-Dec-08 13:30N 68°04' E 015°12'610.9
2017-Dec-08 13:00N 68°09' E 015°03'510.0
2017-Dec-08 12:30N 68°13' E 014°56'611.2
2017-Dec-08 12:00N 68°19' E 014°58'611.6
2017-Dec-08 11:30N 68°24' E 015°06'611.3
2017-Dec-08 11:00N 68°29' E 015°13'5 9.7
2017-Dec-08 10:30N 68°33' E 015°09'611.5
2017-Dec-08 10:00N 68°37' E 015°20'611.2
2017-Dec-08 09:30N 68°43' E 015°26'611.3
2017-Dec-08 09:00N 68°48' E 015°26'510.7
2017-Dec-08 08:30N 68°54' E 015°24'510.9
2017-Dec-08 08:00N 68°59' E 015°23'5 9.3
2017-Dec-08 07:30N 69°02' E 015°14'5 9.4
2017-Dec-08 07:00N 69°02' E 015°01'611.0
2017-Dec-08 06:30N 68°56' E 014°59'2 4.1
2017-Dec-08 06:00N 68°55' E 015°04'0 0.0
2017-Dec-08 05:30N 68°55' E 015°04'0 0.0
2017-Dec-08 05:00N 68°55' E 015°04'0 0.0
2017-Dec-08 04:30N 68°55' E 015°04'0 0.0
2017-Dec-08 03:59N 68°55' E 015°04'0 0.0
2017-Dec-08 03:30N 68°55' E 015°04'0 0.0
2017-Dec-08 03:00N 68°55' E 015°04'0 0.0
2017-Dec-08 02:30N 68°55' E 015°04'0 0.0
2017-Dec-08 02:00N 68°55' E 015°04'0 0.0
2017-Dec-08 01:30N 68°55' E 015°04'0 0.0
2017-Dec-08 01:00N 68°55' E 015°04'0 0.0
2017-Dec-08 00:30N 68°55' E 015°04'0 0.0
2017-Dec-07 23:58N 68°55' E 015°04'0 0.0
2017-Dec-07 23:30N 68°55' E 015°04'0 0.0
2017-Dec-07 23:00N 68°55' E 015°04'0 0.0
2017-Dec-07 22:30N 68°55' E 015°04'0 0.0
2017-Dec-07 22:00N 68°55' E 015°04'0 0.0
2017-Dec-07 21:30N 68°55' E 015°04'0 0.0
2017-Dec-07 21:00N 68°55' E 015°04'0 0.0
2017-Dec-07 20:30N 68°55' E 015°04'0 0.0
2017-Dec-07 20:00N 68°55' E 015°04'0 0.0
2017-Dec-07 19:30N 68°55' E 015°04'0 0.0
2017-Dec-07 19:00N 68°55' E 015°04'0 0.0
2017-Dec-07 18:30N 68°55' E 015°04'0 0.0
2017-Dec-07 18:00N 68°55' E 015°04'0 0.0
2017-Dec-07 17:30N 68°55' E 015°04'0 0.0
2017-Dec-07 17:00N 68°55' E 015°04'0 0.0
2017-Dec-07 16:30N 68°55' E 015°04'0 0.0
2017-Dec-07 16:00N 68°55' E 015°04'0 0.0
2017-Dec-07 15:30N 68°55' E 015°04'0 0.0
2017-Dec-07 15:00N 68°55' E 015°04'0 0.0
2017-Dec-07 14:30N 68°55' E 015°04'0 0.0
2017-Dec-07 14:00N 68°55' E 015°04'0 0.0
2017-Dec-07 13:30N 68°55' E 015°04'0 0.0
2017-Dec-07 13:00N 68°55' E 015°04'0 0.0
2017-Dec-07 12:30N 68°55' E 015°04'0 0.0
2017-Dec-07 11:59N 68°55' E 015°04'0 0.0
2017-Dec-07 11:29N 68°55' E 015°04'0 0.0
2017-Dec-07 11:00N 68°55' E 015°04'0 0.0
2017-Dec-07 10:30N 68°55' E 015°04'0 0.0
2017-Dec-07 10:00N 68°55' E 015°04'0 0.0
2017-Dec-07 09:30N 68°55' E 015°04'0 0.0
2017-Dec-07 09:00N 68°55' E 015°04'0 0.0
2017-Dec-07 08:30N 68°55' E 015°04'0 0.0
2017-Dec-07 08:00N 68°55' E 015°04'0 0.0
2017-Dec-07 07:30N 68°55' E 015°04'0 0.0
2017-Dec-07 07:00N 68°55' E 015°04'0 0.0
2017-Dec-07 06:30N 68°55' E 015°04'0 0.0
2017-Dec-07 05:59N 68°55' E 015°04'0 0.0
2017-Dec-07 05:30N 68°55' E 015°04'0 0.0
2017-Dec-07 05:00N 68°55' E 015°04'0 0.0
2017-Dec-07 04:30N 68°55' E 015°04'0 0.0
2017-Dec-07 04:00N 68°55' E 015°04'0 0.0
2017-Dec-07 03:29N 68°55' E 015°04'0 0.0
2017-Dec-07 03:00N 68°55' E 015°04'0 0.0
2017-Dec-07 02:30N 68°55' E 015°04'0 0.0
2017-Dec-07 02:00N 68°55' E 015°04'0 0.0
2017-Dec-07 01:30N 68°55' E 015°04'0 0.0
2017-Dec-07 01:00N 68°55' E 015°04'0 0.0
2017-Dec-07 00:30N 68°55' E 015°04'0 0.0
2017-Dec-06 23:59N 68°55' E 015°04'0 0.0
2017-Dec-06 23:30N 68°55' E 015°04'0 0.0
2017-Dec-06 23:00N 68°55' E 015°04'0 0.0
2017-Dec-06 22:30N 68°55' E 015°04'0 0.0
2017-Dec-06 22:00N 68°55' E 015°04'0 0.0
2017-Dec-06 21:30N 68°55' E 015°04'0 0.2
2017-Dec-06 21:00N 68°55' E 015°04'  

Dump ship's entire track history